Time;durP1;ratioP1;P1;durP2;ratioP2;P2;SDS_P1;SDS_P2;PMS_P1;PMS_P2;Temp;Humidity;BMP_temperature;BMP_pressure;BME280_temperature;BME280_humidity;BME280_pressure;Samples;Min_cycle;Max_cycle;Signal;HPM_P1;HPM_P2
2022/02/02 00:01:16;;;;;;;74.05;37.95;;;51.60;2227.20;;;;;;4836776;29;20096;-56
2022/02/02 00:03:47;;;;;;;22.17;13.52;;;51.90;2227.20;;;;;;4837331;29;20050;-60
2022/02/02 00:06:22;;;;;;;26.25;13.93;;;51.60;2227.20;;;;;;4837443;29;20112;-60
2022/02/02 00:19:12;;;;;;;231.98;131.23;;;51.70;2227.20;;;;;;4855593;29;20033;-60
2022/02/02 00:21:43;;;;;;;161.80;90.28;;;51.80;2227.20;;;;;;4855176;29;20389;-54
2022/02/02 00:24:57;;;;;;;52.72;30.63;;;51.90;2227.20;;;;;;4854666;29;20089;-63
2022/02/02 00:27:08;;;;;;;64.80;33.88;;;51.80;2227.20;;;;;;4908949;29;20044;-58
2022/02/02 00:29:39;;;;;;;36.80;19.05;;;51.50;2227.20;;;;;;4915490;29;20036;-61
2022/02/02 00:32:15;;;;;;;22.25;11.35;;;51.50;2227.20;;;;;;4915433;29;20035;-60
2022/02/02 00:34:41;;;;;;;26.35;15.68;;;51.30;2227.20;;;;;;4914881;29;20542;-60
2022/02/02 00:37:07;;;;;;;34.50;18.55;;;51.20;2227.20;;;;;;4923370;28;20053;-59
2022/02/02 00:39:33;;;;;;;34.58;21.00;;;26.40;2201.60;;;;;;4975099;28;20031;-61
2022/02/02 00:41:58;;;;;;;27.60;14.30;;;26.30;2201.60;;;;;;4974056;28;20027;-57
2022/02/02 00:44:26;;;;;;;22.08;12.65;;;26.40;2201.60;;;;;;4974835;28;20481;-59
2022/02/02 00:46:53;;;;;;;24.02;11.20;;;26.50;2201.60;;;;;;4974666;28;20030;-61
2022/02/02 00:49:19;;;;;;;25.88;12.57;;;26.50;2201.60;;;;;;4957176;28;20030;-54
2022/02/02 00:51:46;;;;;;;28.15;15.70;;;26.50;2201.60;;;;;;4974549;28;20135;-60
2022/02/02 00:54:18;;;;;;;32.83;20.38;;;26.30;2201.60;;;;;;4974539;28;20035;-56
2022/02/02 00:56:44;;;;;;;32.53;18.42;;;26.20;2201.60;;;;;;4974625;28;20027;-55
2022/02/02 00:59:10;;;;;;;38.50;18.17;;;26.30;2201.60;;;;;;4974119;28;20034;-62
2022/02/02 01:01:37;;;;;;;24.40;13.60;;;26.30;2201.60;;;;;;4974378;28;20070;-54
2022/02/02 01:04:03;;;;;;;33.28;16.48;;;26.20;2201.60;;;;;;4974261;28;20023;-60
2022/02/02 01:06:32;;;;;;;37.75;21.20;;;26.40;2201.60;;;;;;4974087;28;20114;-61
2022/02/02 01:19:44;;;;;;;34.28;15.68;;;26.10;2201.60;;;;;;4974100;28;20085;-60
2022/02/02 01:30:01;;;;;;;45.85;25.42;;;26.20;2201.60;;;;;;4973923;28;20078;-60
2022/02/02 01:32:27;;;;;;;114.93;54.80;;;26.10;2201.60;;;;;;4973700;28;20093;-54
2022/02/02 01:34:55;;;;;;;53.53;29.63;;;26.30;2201.60;;;;;;4973495;28;20541;-61
2022/02/02 01:37:21;;;;;;;83.35;42.55;;;26.40;2201.60;;;;;;4973721;28;20026;-61
2022/02/02 01:39:53;;;;;;;94.85;42.97;;;26.50;2201.60;;;;;;4972999;28;20082;-59
2022/02/02 01:42:20;;;;;;;102.18;51.45;;;26.50;2201.60;;;;;;4973348;28;20035;-53
2022/02/02 01:47:15;;;;;;;89.72;43.88;;;26.50;2201.60;;;;;;4973509;28;20034;-60
2022/02/02 01:55:01;;;;;;;43.45;19.17;;;26.20;2201.60;;;;;;4973353;28;20074;-57
2022/02/02 02:00:24;;;;;;;147.02;53.35;;;26.10;2201.60;;;;;;4932683;29;20146;-53
2022/02/02 02:02:50;;;;;;;230.52;85.80;;;26.00;2201.60;;;;;;4932283;29;20514;-61
2022/02/02 02:05:16;;;;;;;159.98;59.80;;;26.10;2201.60;;;;;;4932584;29;20043;-54
2022/02/02 02:07:42;;;;;;;97.22;35.78;;;26.10;2201.60;;;;;;4932685;29;20032;-62
2022/02/02 02:10:08;;;;;;;129.27;52.83;;;26.20;2201.60;;;;;;4932484;29;20498;-60
2022/02/02 02:12:42;;;;;;;84.60;30.02;;;26.10;2201.60;;;;;;4932725;29;20036;-61
2022/02/02 02:15:10;;;;;;;110.68;43.03;;;26.00;2201.60;;;;;;4932279;29;20513;-61
2022/02/02 02:17:36;;;;;;;97.75;38.42;;;26.20;2201.60;;;;;;4931764;29;20043;-57
2022/02/02 02:20:03;;;;;;;47.28;19.90;;;26.10;2201.60;;;;;;4932549;29;20028;-62
2022/02/02 02:22:33;;;;;;;24.38;12.80;;;26.10;2201.60;;;;;;4932038;29;20032;-61
2022/02/02 02:24:59;;;;;;;29.55;13.82;;;26.10;2201.60;;;;;;4932289;29;20039;-61
2022/02/02 02:27:26;;;;;;;86.15;33.55;;;26.20;2201.60;;;;;;4932373;29;20040;-60
2022/02/02 02:32:45;;;;;;;67.22;34.75;;;26.00;2201.60;;;;;;4932093;29;20091;-54
2022/02/02 02:56:47;;;;;;;20.48;10.77;;;0.80;2201.60;;;;;;4953517;29;20438;-62
2022/02/02 02:59:21;;;;;;;20.15;9.57;;;0.50;2201.60;;;;;;4953076;29;20050;-61
2022/02/02 03:59:03;;;;;;;22.73;9.98;;;0.40;2201.60;;;;;;4952058;29;20032;-56
2022/02/02 04:06:54;;;;;;;44.75;21.23;;;0.70;2201.60;;;;;;4952070;29;20957;-54
2022/02/02 04:09:20;;;;;;;19.25;8.52;;;0.90;2201.60;;;;;;4951796;29;20426;-57
2022/02/02 04:11:54;;;;;;;18.55;12.07;;;25.60;2201.60;;;;;;4952063;29;20038;-55
2022/02/02 05:10:31;;;;;;;18.58;9.60;;;25.80;2201.60;;;;;;4951399;29;20053;-54
2022/02/02 05:51:11;;;;;;;80.60;49.47;;;51.50;2227.20;;;;;;4954302;29;20119;-61
2022/02/02 05:53:36;;;;;;;67.40;38.08;;;51.50;2227.20;;;;;;4954140;29;20034;-59
2022/02/02 05:56:04;;;;;;;47.25;28.42;;;51.60;2227.20;;;;;;4953987;29;20031;-61
2022/02/02 05:58:33;;;;;;;42.55;23.25;;;51.60;2227.20;;;;;;4953954;29;20039;-60
2022/02/02 06:01:00;;;;;;;39.45;22.88;;;51.70;2227.20;;;;;;4953372;29;20096;-60
2022/02/02 06:03:40;;;;;;;39.33;22.88;;;51.70;2227.20;;;;;;4953615;29;20043;-60
2022/02/02 06:06:06;;;;;;;39.90;20.23;;;51.70;2227.20;;;;;;4953971;29;20062;-61
2022/02/02 06:08:34;;;;;;;27.65;15.27;;;51.80;2227.20;;;;;;4953358;29;20042;-55
2022/02/02 06:11:04;;;;;;;25.80;13.93;;;51.80;2227.20;;;;;;4953367;29;20114;-52
2022/02/02 06:13:43;;;;;;;29.65;13.82;;;51.80;2227.20;;;;;;4953783;29;20055;-58
2022/02/02 06:16:09;;;;;;;20.90;10.77;;;51.80;2227.20;;;;;;4953611;29;20031;-60
2022/02/02 06:18:36;;;;;;;18.13;9.75;;;51.80;2227.20;;;;;;4953118;29;20047;-58
2022/02/02 06:21:08;;;;;;;18.45;9.98;;;51.70;2227.20;;;;;;4953702;29;20031;-57
2022/02/02 06:23:51;;;;;;;18.75;9.63;;;52.00;2227.20;;;;;;4953673;29;20062;-57
2022/02/02 06:26:17;;;;;;;270.65;128.43;;;52.10;2227.20;;;;;;4953562;28;20059;-57
2022/02/02 06:28:44;;;;;;;182.00;102.18;;;76.80;2227.20;;;;;;4953834;29;20034;-56
2022/02/02 06:31:14;;;;;;;42.90;26.40;;;76.90;2227.20;;;;;;4953660;29;20483;-57
2022/02/02 06:33:41;;;;;;;75.82;39.13;;;77.00;2227.20;;;;;;4953189;29;20027;-58
2022/02/02 06:36:10;;;;;;;192.68;103.45;;;76.90;2227.20;;;;;;4953112;28;20458;-56
2022/02/02 06:38:42;;;;;;;204.50;114.75;;;76.90;2227.20;;;;;;4953329;29;20031;-57
2022/02/02 06:41:08;;;;;;;229.02;120.10;;;76.80;2227.20;;;;;;4953138;29;20362;-56
2022/02/02 06:43:35;;;;;;;205.75;112.00;;;77.00;2227.20;;;;;;4953176;29;20043;-57
2022/02/02 06:46:02;;;;;;;240.23;135.68;;;77.10;2227.20;;;;;;4935920;29;20110;-57
2022/02/02 06:48:31;;;;;;;332.73;178.70;;;77.30;2227.20;;;;;;4952924;28;20032;-57
2022/02/02 06:51:27;;;;;;;103.45;62.00;;;77.50;2227.20;;;;;;4953131;29;20605;-58
2022/02/02 06:54:05;;;;;;;73.80;41.67;;;77.50;2227.20;;;;;;4952718;29;20054;-58
2022/02/02 06:57:03;;;;;;;75.07;43.42;;;77.50;2227.20;;;;;;4952672;29;20039;-58
2022/02/02 07:02:26;;;;;;;65.75;36.45;;;77.40;2227.20;;;;;;4953026;29;20066;-58
2022/02/02 07:08:02;;;;;;;27.48;16.02;;;76.90;2227.20;;;;;;4952916;29;20037;-57
2022/02/02 07:10:34;;;;;;;21.52;12.88;;;52.10;2227.20;;;;;;4952163;29;20042;-55
2022/02/02 07:13:23;;;;;;;34.28;18.92;;;52.00;2227.20;;;;;;4952710;29;20035;-57
2022/02/02 07:21:17;;;;;;;23.27;15.25;;;77.10;2227.20;;;;;;4952576;29;20091;-57
2022/02/02 07:31:43;;;;;;;26.42;16.42;;;77.50;2227.20;;;;;;4952232;29;20425;-57
2022/02/02 07:34:14;;;;;;;33.55;21.48;;;102.40;2227.20;;;;;;4951750;29;20402;-59
2022/02/02 07:36:43;;;;;;;39.10;23.95;;;102.50;2227.20;;;;;;4951764;28;20031;-56
2022/02/02 07:39:15;;;;;;;29.95;20.92;;;102.90;2227.20;;;;;;4952228;28;20042;-56
2022/02/02 07:41:47;;;;;;;29.20;18.98;;;103.20;2227.20;;;;;;4951812;29;20481;-58
2022/02/02 07:44:18;;;;;;;32.17;16.00;;;128.10;2252.80;;;;;;4952675;29;20462;-58
2022/02/02 07:46:53;;;;;;;58.65;46.88;;;128.00;2252.80;;;;;;4952360;29;20435;-56
2022/02/02 07:49:33;;;;;;;42.67;25.33;;;128.50;2252.80;;;;;;4951906;29;20030;-57
2022/02/02 07:52:00;;;;;;;90.70;52.88;;;128.40;2252.80;;;;;;4952021;29;20023;-57
2022/02/02 07:54:34;;;;;;;170.80;111.63;;;128.90;2252.80;;;;;;4952123;29;20043;-57
2022/02/02 07:57:10;;;;;;;174.10;117.38;;;153.70;2252.80;;;;;;4951690;29;20030;-59
2022/02/02 07:59:47;;;;;;;147.80;97.50;;;128.50;2252.80;;;;;;4951869;28;20059;-58
2022/02/02 08:02:14;;;;;;;122.90;79.07;;;128.40;2252.80;;;;;;4952030;29;20050;-56
2022/02/02 08:04:40;;;;;;;120.00;82.25;;;153.60;2252.80;;;;;;4951719;29;20031;-57
2022/02/02 08:07:13;;;;;;;155.10;102.18;;;128.70;2252.80;;;;;;4951991;29;20079;-59
2022/02/02 08:09:45;;;;;;;143.45;92.38;;;128.20;2252.80;;;;;;4951648;29;20037;-55
2022/02/02 08:12:18;;;;;;;93.38;56.47;;;128.70;2252.80;;;;;;4952039;29;20031;-56
2022/02/02 08:14:45;;;;;;;95.13;63.67;;;128.80;2252.80;;;;;;4951536;29;20054;-58
2022/02/02 08:17:11;;;;;;;87.80;56.42;;;153.90;2252.80;;;;;;4951819;29;20039;-56
2022/02/02 08:19:39;;;;;;;110.82;69.85;;;154.00;2252.80;;;;;;4934115;29;20039;-57
2022/02/02 08:22:05;;;;;;;76.03;51.72;;;154.10;2252.80;;;;;;4952068;29;20071;-55
2022/02/02 08:24:31;;;;;;;70.68;46.78;;;179.20;2252.80;;;;;;4951713;29;20058;-58
2022/02/02 08:26:58;;;;;;;85.45;54.78;;;154.40;2252.80;;;;;;4951646;29;20036;-57
2022/02/02 08:29:25;;;;;;;93.15;61.00;;;154.40;2252.80;;;;;;4951874;28;20469;-57
2022/02/02 08:31:51;;;;;;;68.13;43.00;;;154.30;2252.80;;;;;;4951533;29;20043;-59
2022/02/02 08:34:17;;;;;;;67.82;42.13;;;154.10;2252.80;;;;;;4951098;29;20152;-57
2022/02/02 08:36:49;;;;;;;82.63;55.38;;;153.90;2252.80;;;;;;4951831;29;20470;-58
2022/02/02 08:41:55;;;;;;;83.30;57.45;;;154.30;2252.80;;;;;;4951164;29;20026;-58
2022/02/02 08:44:28;;;;;;;68.63;44.42;;;179.30;2252.80;;;;;;4951416;29;20023;-58
2022/02/02 08:47:06;;;;;;;26.75;16.20;;;179.50;2252.80;;;;;;4951717;29;20492;-57
2022/02/02 08:49:38;;;;;;;53.75;34.03;;;154.40;2227.20;;;;;;4953817;28;20032;-57
2022/02/02 08:52:04;;;;;;;50.47;33.60;;;179.50;2227.20;;;;;;4955453;29;20489;-57
2022/02/02 08:57:26;;;;;;;22.13;14.73;;;180.00;2176.00;;;;;;4955501;29;20549;-59
2022/02/02 09:00:10;;;;;;;43.85;32.53;;;204.90;2201.60;;;;;;4955125;29;20553;-59
2022/02/02 09:02:36;;;;;;;;;;;205.20;2124.80;;;;;;4955464;29;20027;-60
2022/02/02 09:05:20;;;;;;;23.13;14.45;;;205.30;2099.20;;;;;;4954714;29;19911;-59
2022/02/02 09:07:47;;;;;;;19.77;13.23;;;205.00;2201.60;;;;;;4955064;29;20122;-59
2022/02/02 09:10:19;;;;;;;19.95;14.95;;;180.10;2252.80;;;;;;4955293;29;20031;-59
2022/02/02 09:23:29;;;;;;;21.83;15.60;;;179.40;2252.80;;;;;;4954915;29;20438;-58
2022/02/02 09:33:57;;;;;;;33.20;21.85;;;180.10;2252.80;;;;;;4954181;29;20077;-58
2022/02/02 09:36:29;;;;;;;60.38;33.58;;;205.00;2252.80;;;;;;4954792;29;20038;-59
2022/02/02 09:38:57;;;;;;;40.58;25.70;;;205.10;2252.80;;;;;;4954498;29;20023;-60
2022/02/02 09:43:55;;;;;;;94.10;51.33;;;205.20;2252.80;;;;;;4954402;29;20024;-59
2022/02/02 09:46:26;;;;;;;79.03;49.05;;;205.00;2252.80;;;;;;4954120;29;20034;-58
2022/02/02 09:48:59;;;;;;;101.93;55.30;;;205.40;2252.80;;;;;;4937290;29;20058;-57
2022/02/02 09:51:35;;;;;;;80.90;50.42;;;205.30;2252.80;;;;;;4954321;29;20023;-58
2022/02/02 09:54:08;;;;;;;128.75;87.43;;;205.60;2252.80;;;;;;4954059;29;20050;-58
2022/02/02 09:57:11;;;;;;;;;;;205.60;2252.80;;;;;;4954731;29;20086;-57
2022/02/02 10:05:16;;;;;;;143.35;105.43;;;230.50;2252.80;;;;;;4954023;29;20541;-58
2022/02/02 10:15:51;;;;;;;137.15;101.75;;;231.30;2252.80;;;;;;4953131;29;20046;-59
2022/02/02 10:18:20;;;;;;;128.68;104.95;;;256.20;2227.20;;;;;;4953421;29;20544;-58
2022/02/02 10:20:53;;;;;;;80.53;62.40;;;281.70;2150.40;;;;;;4953749;29;20142;-59
2022/02/02 10:23:31;;;;;;;62.90;47.67;;;282.00;2048.00;;;;;;4953633;29;20045;-59
2022/02/02 10:26:14;;;;;;;66.85;52.17;;;282.20;1971.20;;;;;;4953289;29;20039;-59
2022/02/02 10:28:40;;;;;;;111.70;76.20;;;307.40;1945.60;;;;;;4953399;29;20023;-58
2022/02/02 10:31:07;;;;;;;67.53;50.40;;;307.40;1971.20;;;;;;4936538;29;20490;-59
2022/02/02 10:33:35;;;;;;;81.88;67.45;;;282.30;1971.20;;;;;;4953435;29;20126;-58
2022/02/02 10:36:20;;;;;;;38.25;27.80;;;282.20;1996.80;;;;;;4952977;29;20450;-59
2022/02/02 10:39:11;;;;;;;54.55;36.92;;;281.70;2022.40;;;;;;4953465;29;20058;-59
2022/02/02 10:41:53;;;;;;;53.78;36.70;;;256.70;2073.60;;;;;;4953108;29;20035;-59
2022/02/02 10:44:24;;;;;;;28.48;21.17;;;256.40;2099.20;;;;;;4953052;28;20458;-58
2022/02/02 10:47:06;;;;;;;25.33;19.42;;;256.20;2099.20;;;;;;4953222;29;20035;-59
2022/02/02 11:01:09;;;;;;;17.67;10.60;;;231.10;2124.80;;;;;;4874815;29;20097;-59
2022/02/02 11:06:41;;;;;;;8.80;3.38;;;256.00;2048.00;;;;;;4874999;29;20105;-58
2022/02/02 11:09:09;;;;;;;14.32;8.00;;;231.00;2099.20;;;;;;4875066;29;20037;-58
2022/02/02 11:11:41;;;;;;;7.45;4.95;;;231.00;2099.20;;;;;;4874388;29;20037;-58
2022/02/02 11:14:47;;;;;;;4.87;2.47;;;230.90;2099.20;;;;;;4875117;29;20582;-58
2022/02/02 11:17:43;;;;;;;92.28;52.92;;;230.90;2099.20;;;;;;4874874;29;20325;-58
2022/02/02 11:20:11;;;;;;;22.13;12.93;;;231.00;2099.20;;;;;;4874805;29;20112;-58
2022/02/02 11:22:47;;;;;;;8.55;4.40;;;230.90;2099.20;;;;;;4875002;29;20117;-59
2022/02/02 11:25:13;;;;;;;11.13;4.65;;;230.70;2073.60;;;;;;4875009;29;20143;-59
2022/02/02 11:27:42;;;;;;;91.32;53.65;;;230.80;2099.20;;;;;;4874576;29;20033;-58
2022/02/02 11:30:25;;;;;;;92.32;57.00;;;230.60;2073.60;;;;;;4889368;29;20040;-57
2022/02/02 11:32:54;;;;;;;21.77;12.23;;;230.60;2073.60;;;;;;4949369;29;20063;-58
2022/02/02 11:35:46;;;;;;;10.60;9.25;;;230.60;2048.00;;;;;;4951850;29;20059;-57
2022/02/02 11:38:26;;;;;;;62.15;39.53;;;230.70;2073.60;;;;;;4952318;29;20082;-57
2022/02/02 11:46:38;;;;;;;12.43;6.55;;;205.70;2124.80;;;;;;4952266;29;20095;-58
2022/02/02 11:49:09;;;;;;;16.27;9.13;;;205.70;2099.20;;;;;;4952053;29;20071;-59
2022/02/02 11:51:51;;;;;;;5.68;3.60;;;205.50;2150.40;;;;;;4952158;29;20039;-59
2022/02/02 11:54:32;;;;;;;5.82;4.00;;;205.40;2201.60;;;;;;4952152;29;20130;-60
2022/02/02 11:57:09;;;;;;;5.30;2.72;;;205.40;2201.60;;;;;;4951964;29;20027;-58
2022/02/02 11:59:39;;;;;;;5.20;2.90;;;205.30;2227.20;;;;;;4951992;29;20035;-58
2022/02/02 12:02:14;;;;;;;5.05;2.38;;;205.30;2252.80;;;;;;4951596;29;20116;-59
2022/02/02 12:07:51;;;;;;;9.60;5.32;;;205.50;2252.80;;;;;;4951861;29;20562;-56
2022/02/02 12:10:52;;;;;;;9.35;6.18;;;205.70;2252.80;;;;;;4951953;29;20540;-55
2022/02/02 12:57:57;;;;;;;22.13;13.63;;;231.10;2252.80;;;;;;4911782;29;20107;-59
2022/02/02 13:03:00;;;;;;;10.77;7.80;;;230.90;2252.80;;;;;;4953751;29;20038;-58
2022/02/02 13:05:26;;;;;;;5.80;3.50;;;230.90;2252.80;;;;;;4953651;29;20031;-60
2022/02/02 13:07:57;;;;;;;6.35;3.42;;;230.80;2252.80;;;;;;4953472;29;20095;-59
2022/02/02 13:10:26;;;;;;;7.20;3.58;;;230.40;2252.80;;;;;;4953060;29;20031;-57
2022/02/02 13:13:04;;;;;;;4.90;3.55;;;230.60;2252.80;;;;;;4953131;29;20033;-59
2022/02/02 13:23:41;;;;;;;7.53;3.63;;;230.60;2252.80;;;;;;4931093;29;20577;-56
2022/02/02 13:26:19;;;;;;;6.63;3.70;;;230.60;2252.80;;;;;;4928656;29;20270;-56
2022/02/02 13:31:29;;;;;;;11.63;7.75;;;230.60;2252.80;;;;;;4930218;29;20024;-59
2022/02/02 13:34:14;;;;;;;7.65;5.18;;;230.70;2252.80;;;;;;4929338;29;20046;-57
2022/02/02 13:36:55;;;;;;;7.95;4.00;;;231.00;2252.80;;;;;;4940125;29;20039;-57
2022/02/02 13:59:35;;;;;;;11.60;6.90;;;205.70;2252.80;;;;;;4941638;29;20103;-57
2022/02/02 14:02:19;;;;;;;18.80;11.25;;;230.50;2252.80;;;;;;4953158;29;20431;-58
2022/02/02 14:07:47;;;;;;;10.18;7.90;;;230.50;2252.80;;;;;;4954054;29;20031;-57
2022/02/02 14:10:26;;;;;;;17.40;13.32;;;230.60;2252.80;;;;;;4953822;29;20057;-59
2022/02/02 14:32:01;;;;;;;84.22;52.15;;;205.40;2252.80;;;;;;4953680;29;20038;-58
2022/02/02 14:34:28;;;;;;;19.27;12.18;;;205.50;2252.80;;;;;;4953057;29;20047;-60
2022/02/02 14:36:54;;;;;;;20.45;15.80;;;205.60;2252.80;;;;;;4953342;29;20027;-59
2022/02/02 14:39:29;;;;;;;35.03;26.30;;;205.50;2252.80;;;;;;4953292;29;20390;-58
2022/02/02 14:42:05;;;;;;;17.55;15.38;;;205.40;2252.80;;;;;;4953525;29;20030;-58
2022/02/02 14:44:35;;;;;;;15.73;11.48;;;205.40;2252.80;;;;;;4946221;29;20395;-58
2022/02/02 14:47:07;;;;;;;13.25;6.75;;;205.50;2252.80;;;;;;4929017;29;20023;-57
2022/02/02 14:50:05;;;;;;;12.65;7.75;;;205.40;2252.80;;;;;;4933564;29;20038;-56
2022/02/02 14:52:43;;;;;;;14.32;9.23;;;205.40;2252.80;;;;;;4925493;29;20059;-58
2022/02/02 15:27:57;;;;;;;14.52;9.07;;;180.00;2252.80;;;;;;4931511;29;20083;-57
2022/02/02 15:32:59;;;;;;;23.92;14.65;;;179.90;2252.80;;;;;;4931811;29;20023;-59
2022/02/02 15:35:26;;;;;;;21.90;13.35;;;179.90;2252.80;;;;;;4931352;29;20048;-58
2022/02/02 15:40:53;;;;;;;17.20;9.98;;;179.90;2252.80;;;;;;4872088;29;20063;-58
2022/02/02 15:59:53;;;;;;;18.02;7.97;;;179.70;2252.80;;;;;;4874222;29;20392;-57
2022/02/02 16:02:19;;;;;;;21.65;13.18;;;179.50;2252.80;;;;;;4873730;29;20032;-58
2022/02/02 16:04:45;;;;;;;21.73;15.45;;;179.40;2252.80;;;;;;4876042;29;20036;-59
2022/02/02 16:07:21;;;;;;;15.00;9.75;;;179.30;2252.80;;;;;;4882643;29;20052;-58
2022/02/02 16:09:52;;;;;;;49.95;30.80;;;179.30;2252.80;;;;;;4881823;29;20384;-58
2022/02/02 16:12:27;;;;;;;22.35;11.35;;;179.20;2252.80;;;;;;4877961;29;20025;-59
2022/02/02 16:15:38;;;;;;;17.77;11.10;;;179.20;2252.80;;;;;;4880022;29;20108;-59
2022/02/02 16:39:07;;;;;;;17.52;10.70;;;154.50;2252.80;;;;;;4950270;29;20641;-57
2022/02/02 16:44:17;;;;;;;17.88;8.45;;;154.40;2252.80;;;;;;4950454;29;20256;-59
2022/02/02 16:46:43;;;;;;;14.32;8.10;;;154.40;2252.80;;;;;;4949861;29;20035;-57
2022/02/02 16:49:09;;;;;;;23.85;15.63;;;154.30;2252.80;;;;;;4949615;29;20027;-57
2022/02/02 16:51:36;;;;;;;13.55;7.07;;;154.30;2252.80;;;;;;4950148;29;20019;-60
2022/02/02 16:54:04;;;;;;;14.35;7.20;;;154.40;2252.80;;;;;;4950028;29;20034;-57
2022/02/02 17:31:44;;;;;;;12.27;7.00;;;154.50;2252.80;;;;;;4953401;29;20467;-56
2022/02/02 17:34:21;;;;;;;17.70;12.05;;;179.20;2252.80;;;;;;4952579;29;20496;-56
2022/02/02 17:36:56;;;;;;;20.75;12.73;;;179.30;2252.80;;;;;;4953134;29;20412;-56
2022/02/02 17:39:30;;;;;;;18.15;13.40;;;179.40;2252.80;;;;;;4952418;29;20034;-58
2022/02/02 18:18:26;;;;;;;13.45;8.80;;;179.30;2252.80;;;;;;4951865;29;20035;-56
2022/02/02 18:20:22;;;;;;;10.52;7.40;;;179.40;2252.80;;;;;;4951493;28;20398;-56
2022/02/02 18:22:56;;;;;;;24.70;12.23;;;179.30;2252.80;;;;;;4952096;29;20067;-59
2022/02/02 18:25:31;;;;;;;;;;;179.50;2252.80;;;;;;4952604;29;20031;-58
2022/02/02 18:31:05;;;;;;;12.57;7.70;;;179.40;2252.80;;;;;;4911035;29;20419;-58
2022/02/02 18:36:21;;;;;;;20.27;10.00;;;154.50;2252.80;;;;;;4911201;29;20051;-59
2022/02/02 18:46:26;;;;;;;15.13;6.95;;;154.20;2252.80;;;;;;4909410;29;20458;-63
2022/02/02 18:57:17;;;;;;;9.52;6.20;;;154.00;2252.80;;;;;;4836264;29;20040;-59
2022/02/02 19:08:06;;;;;;;7.35;4.57;;;153.90;2252.80;;;;;;4853642;29;20052;-60
2022/02/02 19:56:44;;;;;;;7.72;4.18;;;154.00;2252.80;;;;;;4951754;29;20520;-60
2022/02/02 20:12:23;;;;;;;7.78;4.68;;;154.10;2252.80;;;;;;4952308;29;20858;-60
2022/02/02 20:14:48;;;;;;;7.72;4.70;;;154.20;2252.80;;;;;;4951669;29;20039;-60
2022/02/02 20:17:17;;;;;;;10.68;4.72;;;154.20;2252.80;;;;;;4951417;29;20434;-56
2022/02/02 20:19:47;;;;;;;7.25;3.90;;;154.10;2252.80;;;;;;4952260;29;20034;-60
2022/02/02 20:22:16;;;;;;;8.52;3.75;;;154.10;2252.80;;;;;;4951575;29;20174;-60
2022/02/02 20:24:51;;;;;;;6.13;3.67;;;154.10;2252.80;;;;;;4950394;29;20118;-60
2022/02/02 20:27:17;;;;;;;12.15;6.97;;;154.20;2252.80;;;;;;4950549;29;20031;-62
2022/02/02 20:29:42;;;;;;;7.90;4.40;;;154.20;2252.80;;;;;;4950520;29;20152;-62
2022/02/02 20:32:08;;;;;;;7.38;3.63;;;154.10;2252.80;;;;;;4950655;29;20038;-60
2022/02/02 20:34:34;;;;;;;13.68;7.72;;;154.00;2252.80;;;;;;4950364;29;20047;-61
2022/02/02 20:37:00;;;;;;;7.57;3.90;;;154.10;2252.80;;;;;;4950292;29;20039;-62
2022/02/02 20:39:41;;;;;;;5.97;3.55;;;154.20;2252.80;;;;;;4950639;29;20028;-56
2022/02/02 20:42:09;;;;;;;6.07;4.47;;;154.10;2252.80;;;;;;4950459;29;20492;-57
2022/02/02 21:11:31;;;;;;;6.70;2.90;;;153.80;2252.80;;;;;;4943266;29;20393;-61
2022/02/02 21:13:57;;;;;;;15.70;10.00;;;153.70;2252.80;;;;;;4938537;29;20031;-55
2022/02/02 21:16:28;;;;;;;6.53;4.28;;;153.70;2252.80;;;;;;4939758;29;20351;-56
2022/02/02 21:18:56;;;;;;;15.00;7.38;;;153.90;2252.80;;;;;;4951977;29;20114;-56
2022/02/02 21:21:34;;;;;;;18.35;8.85;;;153.90;2252.80;;;;;;4925925;29;20371;-56
2022/02/02 21:29:10;;;;;;;4.55;3.13;;;153.80;2252.80;;;;;;4942606;29;20083;-56
2022/02/02 21:31:35;;;;;;;26.02;14.52;;;153.80;2252.80;;;;;;4945497;29;20039;-55
2022/02/02 21:34:02;;;;;;;10.48;7.22;;;153.90;2252.80;;;;;;4942721;29;20028;-56
2022/02/02 21:36:28;;;;;;;10.20;5.50;;;153.80;2252.80;;;;;;4944220;29;20023;-56
2022/02/02 21:39:08;;;;;;;79.40;63.88;;;154.00;2252.80;;;;;;4945072;29;20089;-56
2022/02/02 21:41:37;;;;;;;7.68;4.60;;;154.00;2252.80;;;;;;4943317;29;20078;-56
2022/02/02 21:44:06;;;;;;;7.30;4.07;;;154.10;2252.80;;;;;;4933390;29;20056;-55
2022/02/02 21:46:32;;;;;;;17.92;8.55;;;154.10;2252.80;;;;;;4953951;29;20121;-55
2022/02/02 21:49:01;;;;;;;10.40;6.65;;;154.20;2252.80;;;;;;4953967;29;20513;-58
2022/02/02 21:51:35;;;;;;;15.13;9.70;;;154.20;2252.80;;;;;;4953934;29;20027;-57
2022/02/02 21:54:02;;;;;;;16.63;8.60;;;154.30;2252.80;;;;;;4953868;29;20027;-56
2022/02/02 21:56:28;;;;;;;10.63;4.32;;;154.30;2252.80;;;;;;4953319;28;20027;-57
2022/02/02 21:58:53;;;;;;;7.78;4.50;;;154.40;2252.80;;;;;;4953602;29;20371;-61
2022/02/02 22:01:20;;;;;;;20.13;12.77;;;154.30;2252.80;;;;;;4953374;29;20122;-60
2022/02/02 22:03:45;;;;;;;58.38;38.25;;;154.50;2252.80;;;;;;4944396;29;20070;-55
2022/02/02 22:06:11;;;;;;;9.32;4.20;;;154.50;2252.80;;;;;;4943229;29;20062;-56
2022/02/02 22:08:37;;;;;;;105.47;64.65;;;154.40;2252.80;;;;;;4944819;29;20031;-59
2022/02/02 22:11:03;;;;;;;8.18;4.85;;;154.40;2252.80;;;;;;4952024;29;20066;-57
2022/02/02 22:13:45;;;;;;;12.35;5.28;;;154.40;2252.80;;;;;;4949766;29;20031;-60
2022/02/02 22:16:16;;;;;;;26.85;15.13;;;154.30;2252.80;;;;;;4934288;29;20512;-58
2022/02/02 22:18:42;;;;;;;10.05;5.07;;;154.20;2252.80;;;;;;4934191;29;20084;-60
2022/02/02 22:21:08;;;;;;;7.43;3.88;;;154.20;2252.80;;;;;;4937481;28;20046;-56
2022/02/02 22:23:35;;;;;;;6.50;3.25;;;154.20;2252.80;;;;;;4944465;29;20031;-61
2022/02/02 22:26:02;;;;;;;9.77;4.88;;;154.30;2252.80;;;;;;4939547;29;20038;-55
2022/02/02 22:28:28;;;;;;;6.05;3.58;;;154.30;2252.80;;;;;;4943576;29;20020;-59
2022/02/02 22:30:54;;;;;;;7.93;4.10;;;154.40;2252.80;;;;;;4942890;29;20023;-61
2022/02/02 22:33:19;;;;;;;5.93;3.25;;;154.50;2252.80;;;;;;4947144;29;20496;-57
2022/02/02 22:35:45;;;;;;;11.68;6.82;;;154.40;2252.80;;;;;;4936201;29;20078;-55
2022/02/02 22:38:11;;;;;;;16.85;7.75;;;154.40;2252.80;;;;;;4953504;29;20458;-56
2022/02/02 22:40:37;;;;;;;11.63;6.20;;;154.30;2252.80;;;;;;4953413;29;20042;-56
2022/02/02 22:43:03;;;;;;;33.08;21.05;;;154.30;2252.80;;;;;;4952798;29;20031;-60
2022/02/02 22:45:29;;;;;;;7.25;4.75;;;154.30;2252.80;;;;;;4953227;29;20035;-60
2022/02/02 22:47:57;;;;;;;35.13;17.60;;;154.50;2252.80;;;;;;4953315;29;20031;-60
2022/02/02 22:50:23;;;;;;;9.82;4.80;;;154.50;2252.80;;;;;;4953217;29;20035;-60
2022/02/02 22:52:54;;;;;;;14.52;7.50;;;154.30;2252.80;;;;;;4953011;29;20023;-61
2022/02/02 22:55:20;;;;;;;27.67;13.43;;;154.30;2252.80;;;;;;4950888;29;20446;-60
2022/02/02 22:57:48;;;;;;;13.02;5.55;;;154.30;2252.80;;;;;;4951222;29;20070;-61
2022/02/02 23:00:21;;;;;;;19.70;10.18;;;154.40;2252.80;;;;;;4951450;29;20498;-55
2022/02/02 23:02:59;;;;;;;22.77;13.35;;;154.50;2252.80;;;;;;4951343;29;20398;-62
2022/02/02 23:05:34;;;;;;;11.13;5.88;;;154.30;2252.80;;;;;;4951187;29;20566;-62
2022/02/02 23:08:01;;;;;;;12.13;7.63;;;154.30;2252.80;;;;;;4950118;28;20398;-60
2022/02/02 23:10:29;;;;;;;16.55;6.32;;;154.30;2252.80;;;;;;4951402;29;20504;-59
2022/02/02 23:12:54;;;;;;;7.43;3.75;;;154.40;2252.80;;;;;;4951415;29;20043;-58
2022/02/02 23:15:27;;;;;;;10.13;5.22;;;154.40;2252.80;;;;;;4950822;29;20078;-61
2022/02/02 23:17:53;;;;;;;18.00;9.30;;;154.40;2252.80;;;;;;4953153;29;20031;-60
2022/02/02 23:20:19;;;;;;;26.70;14.77;;;154.40;2252.80;;;;;;4952793;29;20034;-61
2022/02/02 23:22:46;;;;;;;18.13;9.25;;;154.40;2252.80;;;;;;4952817;29;20019;-58
2022/02/02 23:25:16;;;;;;;12.30;5.78;;;154.40;2252.80;;;;;;4952593;29;20039;-61
2022/02/02 23:27:46;;;;;;;32.97;18.33;;;154.40;2252.80;;;;;;4952677;29;20038;-60
2022/02/02 23:30:17;;;;;;;15.23;6.70;;;154.30;2252.80;;;;;;4952458;29;20035;-62
2022/02/02 23:32:44;;;;;;;46.60;26.20;;;154.40;2252.80;;;;;;4952382;29;20135;-61
2022/02/02 23:35:10;;;;;;;51.20;28.88;;;154.40;2252.80;;;;;;4951571;29;20090;-59
2022/02/02 23:37:40;;;;;;;38.42;21.50;;;154.30;2252.80;;;;;;4952253;29;20494;-62
2022/02/02 23:40:09;;;;;;;19.25;9.27;;;154.40;2252.80;;;;;;4952544;29;20031;-60